Time;durP1;ratioP1;P1;durP2;ratioP2;P2;SDS_P1;SDS_P2;PMS_P1;PMS_P2;Temp;Humidity;BMP_temperature;BMP_pressure;BME280_temperature;BME280_humidity;BME280_pressure;Samples;Min_cycle;Max_cycle;Signal;HPM_P1;HPM_P2
2024/01/30 00:00:35;;;;;;;151.70;17.55;;;;;;;3.87;100.00;102458.78;5074362;28;20044;-71
2024/01/30 00:03:02;;;;;;;208.38;19.50;;;;;;;3.88;100.00;102454.34;5078956;28;20453;-70
2024/01/30 00:05:27;;;;;;;171.88;18.58;;;;;;;3.88;100.00;102454.34;5060731;28;20036;-70
2024/01/30 00:07:53;;;;;;;175.30;19.13;;;;;;;3.88;100.00;102457.00;5078263;28;20479;-70
2024/01/30 00:10:18;;;;;;;170.57;19.27;;;;;;;3.89;100.00;102461.34;5061702;28;20052;-70
2024/01/30 00:12:43;;;;;;;129.32;18.00;;;;;;;3.74;100.00;102445.56;5044145;28;20036;-71
2024/01/30 00:15:09;;;;;;;131.00;18.88;;;;;;;3.90;100.00;102471.03;5078674;28;20032;-70
2024/01/30 00:17:36;;;;;;;96.40;17.15;;;;;;;3.89;100.00;102469.34;5054454;28;20033;-71
2024/01/30 00:20:05;;;;;;;126.13;19.13;;;;;;;3.91;100.00;102462.09;5079874;28;20084;-71
2024/01/30 00:22:33;;;;;;;152.98;19.85;;;;;;;3.93;100.00;102460.16;5078018;28;20037;-70
2024/01/30 00:24:59;;;;;;;112.35;18.15;;;;;;;3.77;100.00;102433.81;5078468;28;20052;-71
2024/01/30 00:27:24;;;;;;;161.40;19.60;;;;;;;3.95;100.00;102459.09;5094083;28;20044;-70
2024/01/30 00:29:49;;;;;;;117.22;18.05;;;;;;;3.97;100.00;102461.63;5086811;28;20032;-71
2024/01/30 00:32:15;;;;;;;96.13;17.65;;;;;;;3.97;100.00;102454.50;5079385;28;20043;-70
2024/01/30 00:34:41;;;;;;;189.73;21.98;;;;;;;4.00;100.00;102467.56;5060092;28;20028;-70
2024/01/30 00:37:07;;;;;;;161.02;20.42;;;;;;;3.97;100.00;102450.97;5078907;28;20100;-70
2024/01/30 00:39:32;;;;;;;185.43;20.48;;;;;;;3.86;100.00;102426.97;5076381;28;20044;-71
2024/01/30 00:41:58;;;;;;;276.48;22.80;;;;;;;3.99;100.00;102459.69;5093101;28;20075;-71
2024/01/30 00:44:23;;;;;;;205.45;19.92;;;;;;;4.08;100.00;102458.16;5075110;28;20036;-70
2024/01/30 00:46:48;;;;;;;117.30;18.63;;;;;;;4.10;100.00;102451.72;5092865;28;20541;-70
2024/01/30 00:49:14;;;;;;;97.45;17.70;;;;;;;4.11;100.00;102444.63;5061468;28;20116;-71
2024/01/30 00:51:39;;;;;;;224.00;22.08;;;;;;;4.06;100.00;102439.63;5078899;28;20090;-70
2024/01/30 00:54:06;;;;;;;321.52;23.90;;;;;;;3.81;100.00;102402.47;5077553;28;20059;-70
2024/01/30 00:56:31;;;;;;;281.10;25.60;;;;;;;4.00;100.00;102432.09;5077975;28;20043;-71
2024/01/30 00:58:57;;;;;;;125.00;20.90;;;;;;;4.04;100.00;102436.25;5077272;28;20424;-71
2024/01/30 01:01:22;;;;;;;152.90;20.70;;;;;;;4.06;100.00;102439.63;5061097;28;20039;-70
2024/01/30 01:03:48;;;;;;;191.23;23.85;;;;;;;4.08;100.00;102447.50;5061046;28;20078;-69
2024/01/30 01:06:14;;;;;;;283.40;28.05;;;;;;;4.10;100.00;102458.88;5076936;28;20031;-70
2024/01/30 01:08:39;;;;;;;131.55;23.92;;;;;;;4.09;100.00;102455.38;5079237;28;20557;-70
2024/01/30 01:11:05;;;;;;;156.88;26.13;;;;;;;3.98;100.00;102437.53;5078638;28;20038;-70
2024/01/30 01:13:30;;;;;;;165.32;26.08;;;;;;;4.08;100.00;102456.34;5078040;28;20029;-70
2024/01/30 01:15:55;;;;;;;129.77;25.05;;;;;;;4.10;100.00;102458.88;5080053;28;20090;-70
2024/01/30 01:18:21;;;;;;;133.90;25.38;;;;;;;4.08;100.00;102452.84;5043838;28;20078;-70
2024/01/30 01:20:46;;;;;;;178.15;28.65;;;;;;;4.09;100.00;102458.03;5077055;28;20030;-70
2024/01/30 01:23:12;;;;;;;173.45;28.95;;;;;;;4.10;100.00;102453.56;5074246;28;20028;-70
2024/01/30 01:25:37;;;;;;;159.60;28.02;;;;;;;3.91;100.00;102428.31;5058184;28;20024;-70
2024/01/30 01:28:03;;;;;;;169.10;29.60;;;;;;;4.03;100.00;102439.84;5077402;28;20505;-70
2024/01/30 01:30:29;;;;;;;165.63;29.15;;;;;;;4.07;100.00;102454.63;5081469;28;20029;-70
2024/01/30 01:33:00;;;;;;;161.07;29.55;;;;;;;3.95;100.00;102431.59;5080942;28;20582;-70
2024/01/30 01:35:26;;;;;;;181.35;29.02;;;;;;;4.05;100.00;102447.75;5077670;28;20021;-71
2024/01/30 01:37:55;;;;;;;171.85;28.70;;;;;;;4.05;100.00;102451.25;5078431;28;20537;-70
2024/01/30 01:40:25;;;;;;;183.70;30.83;;;;;;;4.04;100.00;102454.00;5079331;28;20024;-70
2024/01/30 01:42:54;;;;;;;163.55;30.40;;;;;;;4.03;100.00;102447.84;5077055;28;20020;-70
2024/01/30 01:45:20;;;;;;;173.15;30.58;;;;;;;4.04;100.00;102451.34;5076626;28;20031;-70
2024/01/30 01:47:50;;;;;;;166.82;31.08;;;;;;;4.04;100.00;102448.69;5078218;28;20039;-70
2024/01/30 01:50:19;;;;;;;160.38;30.08;;;;;;;4.04;100.00;102446.91;5076596;28;20070;-70
2024/01/30 01:52:48;;;;;;;191.27;31.75;;;;;;;3.95;100.00;102424.47;5059542;28;20032;-70
2024/01/30 01:55:15;;;;;;;196.10;31.38;;;;;;;4.03;100.00;102423.88;5075273;28;20055;-70
2024/01/30 01:57:42;;;;;;;161.05;31.15;;;;;;;4.03;100.00;102415.88;5080011;28;20059;-70
2024/01/30 02:00:10;;;;;;;166.07;29.75;;;;;;;4.05;100.00;102421.09;5080249;28;20067;-70
2024/01/30 02:02:36;;;;;;;167.68;30.73;;;;;;;4.02;100.00;102427.50;5093838;28;20098;-70
2024/01/30 02:05:02;;;;;;;196.60;31.65;;;;;;;4.04;100.00;102422.91;5077991;28;20024;-70
2024/01/30 02:07:29;;;;;;;176.52;31.92;;;;;;;4.02;100.00;102427.50;5076898;28;20109;-70
2024/01/30 02:09:55;;;;;;;156.70;30.42;;;;;;;4.04;100.00;102428.25;5077022;28;20029;-70
2024/01/30 02:12:20;;;;;;;165.65;29.80;;;;;;;3.92;100.00;102398.06;5077816;28;20128;-70
2024/01/30 02:14:47;;;;;;;157.27;29.73;;;;;;;4.03;100.00;102418.53;5094461;28;20032;-70
2024/01/30 02:17:13;;;;;;;147.90;28.92;;;;;;;4.04;100.00;102417.59;5076451;28;20025;-70
2024/01/30 02:19:40;;;;;;;134.88;27.67;;;;;;;4.04;100.00;102422.91;5076521;28;20113;-70
2024/01/30 02:22:07;;;;;;;140.68;29.05;;;;;;;3.94;100.00;102411.25;5076646;28;20032;-70
2024/01/30 02:24:33;;;;;;;145.15;30.23;;;;;;;4.04;100.00;102420.25;5076116;28;20084;-70
2024/01/30 02:27:00;;;;;;;135.98;28.48;;;;;;;4.08;100.00;102418.22;5076375;28;20029;-70
2024/01/30 02:29:25;;;;;;;126.43;28.48;;;;;;;4.02;100.00;102406.19;5076273;28;20232;-69
2024/01/30 02:31:51;;;;;;;127.88;27.38;;;;;;;4.08;100.00;102415.53;5076560;28;20549;-70
2024/01/30 02:34:16;;;;;;;109.93;28.33;;;;;;;4.05;100.00;102421.94;5059859;28;20037;-70
2024/01/30 02:36:45;;;;;;;115.35;28.13;;;;;;;4.09;100.00;102411.91;5076096;28;20445;-71
2024/01/30 02:39:11;;;;;;;106.63;27.15;;;;;;;4.00;100.00;102398.31;5076482;28;20020;-70
2024/01/30 02:41:36;;;;;;;93.47;26.58;;;;;;;4.08;100.00;102415.53;5076670;28;20097;-70
2024/01/30 02:44:03;;;;;;;107.60;27.92;;;;;;;4.00;100.00;102413.44;5076820;28;20025;-70
2024/01/30 02:46:28;;;;;;;112.22;28.17;;;;;;;3.97;100.00;102392.38;5074973;28;20028;-70
2024/01/30 02:48:55;;;;;;;106.47;26.60;;;;;;;4.06;100.00;102406.81;5077937;28;20032;-70
2024/01/30 02:51:21;;;;;;;107.55;28.65;;;;;;;4.03;100.00;102397.22;5075903;28;20055;-70
2024/01/30 02:53:46;;;;;;;107.18;28.23;;;;;;;4.02;100.00;102395.53;5075422;28;20478;-71
2024/01/30 02:56:13;;;;;;;96.72;27.55;;;;;;;4.05;100.00;102395.31;5076475;28;20079;-70
2024/01/30 02:58:39;;;;;;;97.65;26.50;;;;;;;4.02;100.00;102376.91;5077887;28;20030;-70
2024/01/30 03:01:06;;;;;;;96.85;26.92;;;;;;;4.04;100.00;102377.63;5074744;28;20087;-70
2024/01/30 03:03:31;;;;;;;96.68;26.15;;;;;;;4.05;100.00;102391.81;5056822;28;20097;-70
2024/01/30 03:05:56;;;;;;;101.68;26.58;;;;;;;4.05;100.00;102389.97;5074743;28;20608;-70
2024/01/30 03:08:22;;;;;;;103.13;27.20;;;;;;;4.07;100.00;102395.19;5059244;28;20028;-70
2024/01/30 03:10:48;;;;;;;108.32;27.13;;;;;;;4.07;100.00;102403.16;5075186;28;20486;-70
2024/01/30 03:13:15;;;;;;;103.57;26.75;;;;;;;4.09;100.00;102398.59;5043859;28;20067;-70
2024/01/30 03:15:40;;;;;;;92.65;25.58;;;;;;;4.09;100.00;102398.59;5075994;28;20033;-70
2024/01/30 03:18:06;;;;;;;112.57;28.15;;;;;;;4.08;100.00;102381.75;5077814;28;20043;-70
2024/01/30 03:20:31;;;;;;;109.53;29.08;;;;;;;4.08;100.00;102379.09;5075431;28;20032;-70
2024/01/30 03:22:57;;;;;;;91.60;27.00;;;;;;;3.99;100.00;102379.78;5075021;28;20035;-70
2024/01/30 03:25:23;;;;;;;114.10;29.75;;;;;;;4.10;100.00;102387.78;5092216;28;20051;-70
2024/01/30 03:27:49;;;;;;;86.55;27.70;;;;;;;4.09;100.00;102380.78;5058628;28;20050;-70
2024/01/30 03:30:14;;;;;;;99.95;29.55;;;;;;;4.06;100.00;102373.03;5073654;28;20115;-70
2024/01/30 03:32:40;;;;;;;96.18;29.55;;;;;;;4.12;100.00;102383.22;5075025;28;20387;-70
2024/01/30 03:35:05;;;;;;;75.55;27.48;;;;;;;4.11;100.00;102383.34;5058381;28;20058;-70
2024/01/30 03:37:31;;;;;;;89.90;29.52;;;;;;;3.95;100.00;102346.38;5075858;28;20534;-70
2024/01/30 03:39:57;;;;;;;78.28;27.77;;;;;;;4.13;100.00;102379.56;5076933;28;20427;-70
2024/01/30 03:42:22;;;;;;;111.35;30.67;;;;;;;4.14;100.00;102383.09;5091778;28;20039;-71
2024/01/30 03:44:51;;;;;;;88.65;28.98;;;;;;;4.15;100.00;102388.31;5075311;28;20029;-70
2024/01/30 03:47:17;;;;;;;110.55;31.17;;;;;;;4.16;100.00;102395.31;5074606;28;20119;-70
2024/01/30 03:49:42;;;;;;;104.35;30.70;;;;;;;4.16;100.00;102390.00;5077400;28;20055;-69
2024/01/30 03:52:07;;;;;;;96.93;28.50;;;;;;;4.16;100.00;102391.81;5072559;28;20036;-70
2024/01/30 03:54:33;;;;;;;93.25;28.30;;;;;;;4.15;100.00;102390.97;5096646;28;20100;-70
2024/01/30 03:56:58;;;;;;;83.00;25.45;;;;;;;4.13;100.00;102376.91;5061891;28;20032;-70
2024/01/30 03:59:24;;;;;;;88.90;27.38;;;;;;;4.14;100.00;102383.09;5097306;28;20115;-70
2024/01/30 04:01:51;;;;;;;91.75;26.88;;;;;;;4.11;100.00;102384.19;5095087;28;20099;-70
2024/01/30 04:04:17;;;;;;;80.35;26.55;;;;;;;4.04;100.00;102372.31;5096072;28;20081;-70
2024/01/30 04:06:42;;;;;;;81.75;25.13;;;;;;;4.06;100.00;102375.69;5095542;28;20490;-70
2024/01/30 04:09:08;;;;;;;78.50;24.85;;;;;;;4.03;100.00;102377.75;5078061;28;20427;-70
2024/01/30 04:11:33;;;;;;;84.80;24.30;;;;;;;4.02;100.00;102384.03;5095870;28;20051;-70
2024/01/30 04:13:59;;;;;;;88.25;24.67;;;;;;;3.88;100.00;102350.47;5096557;28;20421;-70
2024/01/30 04:16:24;;;;;;;93.18;26.10;;;;;;;3.97;100.00;102371.06;5078048;28;20097;-70
2024/01/30 04:18:51;;;;;;;91.38;24.35;;;;;;;3.96;100.00;102374.69;5077206;28;20390;-70
2024/01/30 04:21:17;;;;;;;73.93;23.42;;;;;;;3.81;100.00;102359.88;5095179;28;20039;-70
2024/01/30 04:23:42;;;;;;;90.03;24.17;;;;;;;3.92;100.00;102384.75;5095210;28;20024;-70
2024/01/30 04:26:08;;;;;;;79.68;23.73;;;;;;;3.91;100.00;102387.53;5077907;28;20032;-70
2024/01/30 04:28:33;;;;;;;73.30;22.15;;;;;;;3.90;100.00;102385.81;5060384;28;20028;-69
2024/01/30 04:30:59;;;;;;;80.32;22.40;;;;;;;3.85;100.00;102394.16;5094440;28;20402;-70
2024/01/30 04:33:25;;;;;;;77.00;22.13;;;;;;;3.87;100.00;102399.34;5094074;28;20039;-70
2024/01/30 04:35:50;;;;;;;76.72;20.88;;;;;;;3.85;100.00;102403.97;5094507;28;20501;-70
2024/01/30 04:38:15;;;;;;;77.25;20.73;;;;;;;3.85;100.00;102395.97;5095013;28;20067;-70
2024/01/30 04:40:41;;;;;;;73.85;20.42;;;;;;;3.84;100.00;102392.47;5111740;28;20543;-70
2024/01/30 04:43:06;;;;;;;76.13;20.02;;;;;;;3.83;100.00;102371.28;5094128;28;20036;-69
2024/01/30 04:45:33;;;;;;;63.47;17.27;;;;;;;3.81;100.00;102373.19;5091753;28;20469;-70
2024/01/30 04:47:58;;;;;;;67.40;18.05;;;;;;;3.81;100.00;102370.53;5081899;28;20040;-70
2024/01/30 04:50:24;;;;;;;64.10;17.67;;;;;;;3.67;100.00;102353.78;5096706;28;20577;-71
2024/01/30 04:52:49;;;;;;;64.68;17.30;;;;;;;3.76;100.00;102368.22;5074465;28;20039;-70
2024/01/30 04:55:17;;;;;;;72.40;18.15;;;;;;;3.74;100.00;102357.72;5064759;28;20035;-70
2024/01/30 04:57:42;;;;;;;72.30;16.88;;;;;;;3.72;100.00;102350.81;5080337;28;20020;-70
2024/01/30 05:00:09;;;;;;;73.60;17.88;;;;;;;3.72;100.00;102356.97;5060513;28;20028;-70
2024/01/30 05:02:35;;;;;;;66.05;17.20;;;;;;;3.71;100.00;102357.09;5079157;28;20036;-70
2024/01/30 05:05:01;;;;;;;66.82;17.55;;;;;;;3.71;100.00;102349.94;5078464;28;20024;-70
2024/01/30 05:07:26;;;;;;;60.58;16.85;;;;;;;3.58;100.00;102333.22;5077383;28;20032;-70
2024/01/30 05:09:54;;;;;;;64.97;17.98;;;;;;;3.72;100.00;102361.44;5075039;28;20032;-70
2024/01/30 05:12:19;;;;;;;56.60;16.95;;;;;;;3.71;100.00;102352.63;5078456;28;20029;-70
2024/01/30 05:14:45;;;;;;;61.67;17.10;;;;;;;3.74;100.00;102352.38;5093122;28;20036;-70
2024/01/30 05:17:12;;;;;;;61.67;17.27;;;;;;;3.70;100.00;102342.06;5075320;28;20036;-70
2024/01/30 05:19:39;;;;;;;62.08;17.52;;;;;;;3.79;100.00;102353.84;5075569;28;20048;-69
2024/01/30 05:22:04;;;;;;;61.42;17.50;;;;;;;3.76;100.00;102350.44;5075857;28;20036;-70
2024/01/30 05:24:30;;;;;;;57.53;19.27;;;;;;;3.81;100.00;102358.09;5092236;28;20127;-71
2024/01/30 05:26:55;;;;;;;61.75;18.42;;;;;;;3.81;100.00;102349.22;5091987;28;20422;-71
2024/01/30 05:29:21;;;;;;;58.72;17.48;;;;;;;3.84;100.00;102343.66;5077342;28;20090;-71
2024/01/30 05:31:46;;;;;;;52.80;18.33;;;;;;;3.86;100.00;102355.06;5075173;28;20505;-69
2024/01/30 05:34:13;;;;;;;58.50;19.17;;;;;;;3.81;100.00;102339.47;5074676;28;20402;-69
2024/01/30 05:36:38;;;;;;;58.08;19.27;;;;;;;3.82;100.00;102335.81;5075216;28;20044;-69
2024/01/30 05:39:04;;;;;;;51.83;18.80;;;;;;;3.89;100.00;102353.03;5075788;28;20033;-68
2024/01/30 05:41:29;;;;;;;50.75;18.73;;;;;;;3.90;100.00;102344.06;5075337;28;20117;-68
2024/01/30 05:43:55;;;;;;;52.53;18.88;;;;;;;3.95;100.00;102347.22;5074518;28;20232;-69
2024/01/30 05:46:20;;;;;;;49.42;18.40;;;;;;;3.96;100.00;102354.25;5074321;28;20032;-68
2024/01/30 05:48:47;;;;;;;58.25;18.67;;;;;;;3.95;100.00;102341.91;5092886;28;20036;-70
2024/01/30 05:51:12;;;;;;;53.47;18.60;;;;;;;3.99;100.00;102334.50;5076364;28;20174;-68
2024/01/30 05:53:38;;;;;;;53.33;17.95;;;;;;;4.02;100.00;102334.28;5074640;28;20044;-69
2024/01/30 05:56:04;;;;;;;57.00;19.10;;;;;;;4.03;100.00;102327.97;5053874;28;20025;-68
2024/01/30 05:58:30;;;;;;;60.70;19.38;;;;;;;4.01;100.00;102327.28;5052978;28;20424;-68
2024/01/30 06:00:56;;;;;;;58.65;18.98;;;;;;;3.96;100.00;102326.75;5071182;28;20402;-70
2024/01/30 06:03:21;;;;;;;69.22;20.77;;;;;;;4.06;100.00;102325.06;5056596;28;20117;-69
2024/01/30 06:05:47;;;;;;;61.53;20.73;;;;;;;4.06;100.00;102327.75;5055241;28;20470;-69
2024/01/30 06:08:12;;;;;;;64.10;20.92;;;;;;;3.92;100.00;102302.19;5070671;28;20086;-69
2024/01/30 06:10:38;;;;;;;74.28;21.27;;;;;;;4.08;100.00;102319.66;5056220;28;20483;-69
2024/01/30 06:13:03;;;;;;;68.38;21.10;;;;;;;4.09;100.00;102316.00;5070440;28;20033;-69
2024/01/30 06:15:32;;;;;;;62.40;20.73;;;;;;;4.08;100.00;102311.66;5069991;28;20063;-69
2024/01/30 06:17:58;;;;;;;65.53;21.17;;;;;;;4.10;100.00;102320.34;5070088;28;20548;-70
2024/01/30 06:20:24;;;;;;;62.95;21.40;;;;;;;4.11;100.00;102320.25;5055197;28;20074;-70
2024/01/30 06:22:49;;;;;;;69.38;22.40;;;;;;;4.08;100.00;102309.84;5071253;28;20037;-70
2024/01/30 06:25:16;;;;;;;62.92;21.25;;;;;;;4.09;100.00;102316.84;5055975;28;20395;-70
2024/01/30 06:27:42;;;;;;;60.85;20.98;;;;;;;4.10;100.00;102307.03;5054625;28;20029;-70
2024/01/30 06:30:07;;;;;;;62.15;21.30;;;;;;;4.08;100.00;102303.66;5072864;28;20028;-70
2024/01/30 06:32:34;;;;;;;63.72;19.95;;;;;;;3.94;100.00;102286.94;5072505;28;20040;-70
2024/01/30 06:35:00;;;;;;;57.50;19.13;;;;;;;4.08;100.00;102295.69;5057196;28;20467;-69
2024/01/30 06:37:25;;;;;;;62.83;20.25;;;;;;;4.10;100.00;102296.38;5056601;28;20049;-69
2024/01/30 06:39:52;;;;;;;56.03;18.77;;;;;;;4.09;100.00;102292.88;5055521;28;20017;-69
2024/01/30 06:42:17;;;;;;;63.47;19.23;;;;;;;4.08;100.00;102288.53;5054678;28;20514;-70
2024/01/30 06:44:43;;;;;;;54.38;18.38;;;;;;;4.08;100.00;102293.00;5055081;28;20033;-69
2024/01/30 06:47:09;;;;;;;58.85;18.70;;;;;;;4.02;100.00;102280.16;5071967;28;20025;-69
2024/01/30 06:49:38;;;;;;;49.80;18.30;;;;;;;4.06;100.00;102284.28;5053309;28;20025;-69
2024/01/30 06:52:06;;;;;;;57.35;19.48;;;;;;;4.08;100.00;102280.53;5063616;28;20128;-69
2024/01/30 06:54:32;;;;;;;61.75;20.10;;;;;;;4.10;100.00;102278.59;5052376;28;20036;-70
2024/01/30 06:56:58;;;;;;;63.95;19.70;;;;;;;4.03;100.00;102269.38;5052537;28;20128;-70
2024/01/30 06:59:23;;;;;;;64.22;20.08;;;;;;;4.12;100.00;102281.13;5056745;28;20063;-70
2024/01/30 07:01:48;;;;;;;67.88;19.42;;;;;;;4.13;100.00;102274.84;5054540;28;20033;-70
2024/01/30 07:04:14;;;;;;;68.50;20.00;;;;;;;4.15;100.00;102276.41;5054039;28;20498;-69
2024/01/30 07:06:39;;;;;;;64.88;20.27;;;;;;;4.15;100.00;102265.75;5053103;28;20466;-70
2024/01/30 07:09:05;;;;;;;70.35;20.23;;;;;;;3.95;100.00;102231.88;5055003;28;20040;-69
2024/01/30 07:11:32;;;;;;;64.32;20.08;;;;;;;4.16;100.00;102264.78;5071822;28;20028;-69
2024/01/30 07:13:57;;;;;;;52.97;18.60;;;;;;;4.18;100.00;102267.34;5053274;28;20024;-70
2024/01/30 07:16:23;;;;;;;52.25;17.00;;;;;;;4.19;100.00;102269.88;5071211;28;20440;-70
2024/01/30 07:18:49;;;;;;;57.72;18.88;;;;;;;4.20;100.00;102263.56;5054356;28;20100;-70
2024/01/30 07:21:15;;;;;;;53.30;18.92;;;;;;;4.22;100.00;102260.78;5053874;28;20041;-70
2024/01/30 07:23:41;;;;;;;55.63;18.58;;;;;;;4.19;100.00;102255.72;5054084;28;20036;-69
2024/01/30 07:26:06;;;;;;;57.55;19.67;;;;;;;4.22;100.00;102263.47;5070500;28;20029;-69
2024/01/30 07:28:32;;;;;;;52.00;18.17;;;;;;;4.22;100.00;102261.63;5070752;28;20149;-69
2024/01/30 07:30:57;;;;;;;56.55;18.75;;;;;;;4.23;100.00;102267.81;5054645;28;20021;-68
2024/01/30 07:33:23;;;;;;;58.75;19.95;;;;;;;4.22;100.00;102258.97;5073464;28;20054;-69
2024/01/30 07:35:48;;;;;;;56.00;18.80;;;;;;;4.20;100.00;102252.06;5061254;28;20079;-69
2024/01/30 07:38:14;;;;;;;65.60;19.95;;;;;;;4.21;100.00;102259.09;5054169;28;20414;-69
2024/01/30 07:40:39;;;;;;;55.35;19.20;;;;;;;4.22;100.00;102255.47;5053264;28;20064;-69
2024/01/30 07:43:05;;;;;;;49.58;17.92;;;;;;;4.21;100.00;102257.28;5072199;28;20062;-69
2024/01/30 07:45:33;;;;;;;46.17;16.73;;;;;;;4.23;100.00;102250.00;5054321;28;20492;-69
2024/01/30 07:48:02;;;;;;;42.85;16.38;;;;;;;4.24;100.00;102250.88;5055625;28;20136;-70
2024/01/30 07:50:27;;;;;;;48.05;17.85;;;;;;;4.17;100.00;102233.66;5056841;28;20029;-70
2024/01/30 07:52:54;;;;;;;38.60;16.20;;;;;;;4.27;100.00;102244.44;5055934;28;20025;-70
2024/01/30 07:55:28;;;;;;;43.60;16.55;;;;;;;4.28;100.00;102231.00;5057513;28;20079;-69
2024/01/30 07:57:54;;;;;;;38.72;16.95;;;;;;;4.29;100.00;102219.38;5072174;28;20482;-70
2024/01/30 08:00:21;;;;;;;45.08;17.15;;;;;;;4.29;100.00;102211.38;5056550;28;20120;-70
2024/01/30 08:02:47;;;;;;;48.55;18.52;;;;;;;4.26;100.00;102170.81;5055631;28;20116;-69
2024/01/30 08:05:15;;;;;;;49.15;19.08;;;;;;;4.21;100.00;102192.50;5054880;28;20082;-69
2024/01/30 08:07:43;;;;;;;57.58;20.67;;;;;;;4.26;100.00;102200.94;5053515;28;20041;-70
2024/01/30 08:10:10;;;;;;;45.40;17.90;;;;;;;4.29;100.00;102206.03;5072258;28;20029;-69
2024/01/30 08:12:35;;;;;;;51.10;18.90;;;;;;;4.30;100.00;102206.88;5056472;28;20024;-70
2024/01/30 08:15:01;;;;;;;38.90;17.70;;;;;;;4.32;100.00;102226.28;5070396;28;20040;-70
2024/01/30 08:17:26;;;;;;;36.40;16.98;;;;;;;4.32;100.00;102234.25;5070262;28;20391;-70
2024/01/30 08:19:51;;;;;;;39.35;17.42;;;;;;;4.32;100.00;102221.78;5063387;28;20432;-70
2024/01/30 08:22:17;;;;;;;41.90;17.73;;;;;;;4.29;100.00;102205.19;5071923;28;20052;-70
2024/01/30 08:24:42;;;;;;;43.53;16.80;;;;;;;4.35;100.00;102204.72;5060257;28;20029;-70
2024/01/30 08:27:12;;;;;;;44.30;17.02;;;;;;;4.39;100.00;102182.16;5058346;28;20123;-70
2024/01/30 08:29:37;;;;;;;39.17;16.65;;;;;;;4.39;100.00;102185.66;5059931;28;20037;-70
2024/01/30 08:32:05;;;;;;;30.15;15.15;;;;;;;4.41;100.00;102217.53;5060962;28;20059;-69
2024/01/30 08:34:32;;;;;;;31.70;14.90;;;;;;;4.44;100.00;102227.94;5058491;28;20028;-69
2024/01/30 08:37:00;;;;;;;33.85;15.13;;;;;;;4.47;100.00;102231.22;5074969;28;20404;-70
2024/01/30 08:39:25;;;;;;;32.13;15.45;;;;;;;4.50;100.00;102202.59;5058057;28;20033;-70
2024/01/30 08:41:52;;;;;;;39.40;16.42;;;;;;;4.51;100.00;102194.50;5076356;28;20039;-70
2024/01/30 08:44:17;;;;;;;32.22;14.82;;;;;;;4.44;100.00;102171.97;5059556;28;20024;-69
2024/01/30 08:47:04;;;;;;;38.88;16.85;;;;;;;4.55;100.00;102192.41;5059402;28;20483;-70
2024/01/30 08:49:29;;;;;;;35.40;16.45;;;;;;;4.55;100.00;102206.59;5059973;28;20025;-70
2024/01/30 08:51:55;;;;;;;34.08;16.02;;;;;;;4.37;100.00;102166.31;5076064;28;20501;-69
2024/01/30 08:54:20;;;;;;;36.15;15.85;;;;;;;4.55;100.00;102197.75;5058858;28;20036;-70
2024/01/30 08:56:45;;;;;;;35.33;14.63;;;;;;;4.54;100.00;102202.25;5075528;28;20040;-69
2024/01/30 08:59:11;;;;;;;42.70;15.18;;;;;;;4.53;100.00;102202.34;5079477;28;20033;-69
2024/01/30 09:01:36;;;;;;;49.80;16.23;;;;;;;4.45;100.00;102189.66;5063885;28;20037;-69
2024/01/30 09:04:02;;;;;;;59.95;17.33;;;;;;;4.40;100.00;102186.50;5063783;28;20025;-70
2024/01/30 09:06:28;;;;;;;55.88;16.65;;;;;;;4.35;100.00;102183.38;5057121;28;20025;-70
2024/01/30 09:08:54;;;;;;;59.20;17.80;;;;;;;4.27;100.00;102180.47;5057245;28;20033;-70
2024/01/30 09:11:19;;;;;;;63.65;17.90;;;;;;;4.22;100.00;102189.69;5057480;28;20036;-69
2024/01/30 09:13:45;;;;;;;68.07;19.10;;;;;;;4.17;100.00;102181.25;5073752;28;20036;-69
2024/01/30 09:16:10;;;;;;;75.72;19.60;;;;;;;4.10;100.00;102190.69;5057809;28;20025;-70
2024/01/30 09:18:38;;;;;;;74.65;19.55;;;;;;;4.04;100.00;102191.19;5073620;28;20487;-69
2024/01/30 09:21:03;;;;;;;65.30;19.75;;;;;;;4.00;100.00;102187.06;5074839;28;20029;-69
2024/01/30 09:23:29;;;;;;;69.78;20.65;;;;;;;3.98;100.00;102189.00;5057049;28;20033;-69
2024/01/30 09:25:55;;;;;;;81.85;21.63;;;;;;;3.96;100.00;102185.63;5073118;28;20549;-69
2024/01/30 09:28:20;;;;;;;77.05;21.75;;;;;;;3.86;100.00;102166.00;5059899;28;20028;-69
2024/01/30 09:30:46;;;;;;;83.25;21.90;;;;;;;3.83;100.00;102161.78;5074709;28;20058;-69
2024/01/30 09:33:11;;;;;;;90.30;22.88;;;;;;;3.92;100.00;102177.03;5074010;28;20033;-69
2024/01/30 09:35:39;;;;;;;84.35;21.55;;;;;;;3.93;100.00;102159.22;5057762;28;20110;-70
2024/01/30 09:38:05;;;;;;;83.43;21.25;;;;;;;3.96;100.00;102158.97;5057724;28;20053;-70
2024/01/30 09:40:30;;;;;;;91.65;22.10;;;;;;;3.96;100.00;102156.31;5073499;28;20488;-69
2024/01/30 09:42:59;;;;;;;102.13;22.13;;;;;;;3.82;100.00;102137.94;5057437;28;20025;-69
2024/01/30 09:45:25;;;;;;;88.97;21.40;;;;;;;3.98;100.00;102160.56;5055935;28;20390;-69
2024/01/30 09:47:52;;;;;;;104.45;22.85;;;;;;;3.99;100.00;102175.56;5055492;28;20068;-69
2024/01/30 09:50:18;;;;;;;105.55;21.88;;;;;;;3.81;100.00;102138.88;5058096;28;20037;-69
2024/01/30 09:52:44;;;;;;;109.10;22.17;;;;;;;4.01;100.00;102164.81;5059808;28;20033;-69
2024/01/30 09:55:10;;;;;;;96.65;21.00;;;;;;;4.01;100.00;102151.47;5080920;28;20035;-70
2024/01/30 09:57:36;;;;;;;94.82;20.15;;;;;;;3.98;100.00;102159.72;5073517;28;20036;-70
2024/01/30 10:00:03;;;;;;;101.00;20.85;;;;;;;3.98;100.00;102179.19;5060487;28;20025;-69
2024/01/30 10:02:28;;;;;;;110.40;20.15;;;;;;;3.98;100.00;102186.34;5055873;28;20032;-69
2024/01/30 10:04:55;;;;;;;93.78;19.77;;;;;;;3.96;100.00;102181.13;5058282;28;20051;-69
2024/01/30 10:07:20;;;;;;;100.63;19.77;;;;;;;3.94;100.00;102184.88;5057224;28;20041;-70
2024/01/30 10:09:46;;;;;;;80.38;18.02;;;;;;;3.98;100.00;102191.69;5056339;28;20033;-69
2024/01/30 10:12:12;;;;;;;78.53;17.45;;;;;;;3.80;100.00;102151.34;5073046;28;20037;-70
2024/01/30 10:14:39;;;;;;;68.28;15.50;;;;;;;3.98;100.00;102178.38;5073002;28;20467;-70
2024/01/30 10:17:05;;;;;;;71.38;16.65;;;;;;;3.98;100.00;102195.19;5073212;28;20039;-69
2024/01/30 10:19:31;;;;;;;95.30;19.00;;;;;;;3.82;100.00;102177.88;5072855;28;20052;-69
2024/01/30 10:21:56;;;;;;;95.28;19.02;;;;;;;4.00;100.00;102185.22;5057005;28;20033;-69
2024/01/30 10:24:29;;;;;;;104.70;19.00;;;;;;;4.04;100.00;102179.66;5072443;28;20067;-70
2024/01/30 10:26:55;;;;;;;77.22;16.50;;;;;;;4.02;100.00;102187.78;5057260;28;20051;-70
2024/01/30 10:29:20;;;;;;;69.65;15.35;;;;;;;4.05;100.00;102192.03;5072620;28;20041;-70
2024/01/30 10:31:45;;;;;;;72.43;16.02;;;;;;;3.91;100.00;102156.69;5054124;28;20546;-70
2024/01/30 10:34:11;;;;;;;102.15;16.85;;;;;;;4.04;100.00;102185.88;5071360;28;20484;-70
2024/01/30 10:36:43;;;;;;;97.78;18.10;;;;;;;4.09;100.00;102177.50;5055834;28;20045;-69
2024/01/30 10:39:08;;;;;;;79.88;17.38;;;;;;;4.12;100.00;102167.44;5056044;28;20552;-70
2024/01/30 10:41:42;;;;;;;79.30;15.52;;;;;;;4.13;100.00;102153.13;5057357;28;20120;-69
2024/01/30 10:44:10;;;;;;;68.95;15.15;;;;;;;3.93;100.00;102114.78;5056451;28;20095;-69
2024/01/30 10:46:38;;;;;;;70.03;14.93;;;;;;;4.05;100.00;102134.28;5056538;28;20043;-70
2024/01/30 10:49:04;;;;;;;67.50;14.90;;;;;;;4.12;100.00;102142.63;5056597;28;20033;-70
2024/01/30 10:51:31;;;;;;;91.00;16.83;;;;;;;4.15;100.00;102134.38;5067951;28;20632;-69
2024/01/30 10:53:57;;;;;;;78.05;16.70;;;;;;;4.16;100.00;102115.59;5067955;28;20032;-70
2024/01/30 10:56:24;;;;;;;83.90;15.63;;;;;;;4.19;100.00;102102.03;5074481;28;20063;-70
2024/01/30 10:58:52;;;;;;;71.47;16.25;;;;;;;4.22;100.00;102095.59;5054397;28;20037;-70
2024/01/30 11:01:19;;;;;;;73.45;15.68;;;;;;;4.21;100.00;102072.63;5055902;28;20029;-70